ANP weather

Lee Airport
Annapolis, Maryland, United States

Public forecast

Using degrees Fahrenheit for public forecast. Weather courtesy of forecast.io.

METAR (pilot weather report)

Closest report is Tipton Airport, 12.4 nm (22.9 km) NW. Retrieved 2019/09/22 22:42 UTC (0 seconds ago):

KFME 222242Z AUTO 14007KT 10SM CLR 27/20 A3006 RMK AO1

TAF (pilot weather forecast)

Closest forecast is Baltimore/Washington International Thurgood Marshall Airport, 14.7 nm (27.3 km) NNW. Retrieved 2019/09/22 18:24 UTC (4 hours ago):

TAF KBWI 221722Z 2218/2324 18006KT P6SM SCT050 FM231400 23007KT P6SM FEW080 FM232100 24008KT P6SM BKN070